createdAt,value
2019-05-02T00:01:34.038Z,73.90
2019-05-02T00:04:03.869Z,73.90
2019-05-02T00:06:38.022Z,73.40
2019-05-02T00:09:09.086Z,72.70
2019-05-02T00:11:38.245Z,72.90
2019-05-02T00:14:08.688Z,73.90
2019-05-02T00:16:38.498Z,73.80
2019-05-02T00:19:09.110Z,73.80
2019-05-02T00:21:42.948Z,73.80
2019-05-02T00:24:11.758Z,73.80
2019-05-02T00:26:41.152Z,73.80
2019-05-02T00:29:10.792Z,75.50
2019-05-02T00:31:41.869Z,75.80
2019-05-02T00:34:11.509Z,76.20
2019-05-02T00:36:41.146Z,76.30
2019-05-02T00:39:13.826Z,76.50
2019-05-02T00:41:41.561Z,77.30
2019-05-02T00:44:12.251Z,77.80
2019-05-02T00:46:41.720Z,78.20
2019-05-02T00:49:11.107Z,78.50
2019-05-02T00:51:40.522Z,78.90
2019-05-02T00:54:09.879Z,79.10
2019-05-02T00:56:40.132Z,79.00
2019-05-02T00:59:10.422Z,79.30
2019-05-02T01:01:52.636Z,79.30
2019-05-02T01:04:29.029Z,79.60
2019-05-02T01:06:58.594Z,79.60
2019-05-02T01:09:28.069Z,79.70
2019-05-02T01:11:57.579Z,79.60
2019-05-02T01:14:31.337Z,79.50
2019-05-02T01:16:58.341Z,79.10
2019-05-02T01:19:27.748Z,79.00
2019-05-02T01:21:57.126Z,78.70
2019-05-02T01:24:26.527Z,79.00
2019-05-02T01:27:10.988Z,78.90
2019-05-02T01:29:45.276Z,78.70
2019-05-02T01:32:25.269Z,78.60
2019-05-02T01:35:13.164Z,78.60
2019-05-02T01:38:01.508Z,78.70
2019-05-02T01:40:30.934Z,79.00
2019-05-02T01:43:15.382Z,79.70
2019-05-02T01:45:46.627Z,80.60
2019-05-02T01:48:15.793Z,80.60
2019-05-02T01:50:45.426Z,81.20
2019-05-02T01:53:14.819Z,81.40
2019-05-02T01:55:44.192Z,81.60
2019-05-02T01:58:14.927Z,81.50
2019-05-02T02:00:45.978Z,82.00
2019-05-02T02:03:15.468Z,82.70
2019-05-02T02:05:44.867Z,82.10
2019-05-02T02:08:14.772Z,82.10
2019-05-02T02:10:44.173Z,82.10
2019-05-02T02:13:13.924Z,82.10
2019-05-02T02:15:43.598Z,82.00
2019-05-02T02:18:13.921Z,82.10
2019-05-02T02:20:51.646Z,83.20
2019-05-02T02:23:37.872Z,84.10
2019-05-02T02:26:12.082Z,84.60
2019-05-02T02:28:39.985Z,85.30
2019-05-02T02:31:09.370Z,85.30
2019-05-02T02:33:40.788Z,85.60
2019-05-02T02:36:09.802Z,85.60
2019-05-02T02:38:39.186Z,85.00
2019-05-02T02:41:13.084Z,84.60
2019-05-02T02:43:39.879Z,84.40
2019-05-02T02:46:15.217Z,84.50
2019-05-02T02:48:44.584Z,84.20
2019-05-02T02:51:22.197Z,84.20
2019-05-02T02:53:45.252Z,84.40
2019-05-02T02:56:14.650Z,84.50
2019-05-02T02:58:47.550Z,84.40
2019-05-02T03:01:27.328Z,84.70
2019-05-02T03:03:46.359Z,84.70
2019-05-02T03:06:15.987Z,84.70
2019-05-02T03:08:48.714Z,85.40
2019-05-02T03:11:23.363Z,85.00
2019-05-02T03:14:09.713Z,85.20
2019-05-02T03:16:45.957Z,85.40
2019-05-02T03:19:14.659Z,86.30
2019-05-02T03:21:54.567Z,86.50
2019-05-02T03:24:27.805Z,87.20
2019-05-02T03:26:58.421Z,87.90
2019-05-02T03:29:39.327Z,88.70
2019-05-02T03:32:14.463Z,88.80
2019-05-02T03:34:45.170Z,88.80
2019-05-02T03:37:10.243Z,89.60
2019-05-02T03:39:33.682Z,90.00
2019-05-02T03:42:05.051Z,90.00
2019-05-02T03:44:34.747Z,90.10
2019-05-02T03:47:04.962Z,90.20
2019-05-02T03:49:40.700Z,90.20
2019-05-02T03:52:06.040Z,90.00
2019-05-02T03:54:48.331Z,89.90
2019-05-02T03:57:06.955Z,89.80
2019-05-02T03:59:39.724Z,89.70
2019-05-02T04:02:07.401Z,89.00
2019-05-02T04:04:37.265Z,89.00
2019-05-02T04:07:06.662Z,88.80
2019-05-02T04:09:42.436Z,88.90
2019-05-02T04:12:18.932Z,88.90
2019-05-02T04:14:39.627Z,88.90
2019-05-02T04:17:10.481Z,88.90
2019-05-02T04:19:40.653Z,88.90
2019-05-02T04:22:12.086Z,88.50
2019-05-02T04:24:47.659Z,89.00
2019-05-02T04:27:13.860Z,87.40
2019-05-02T04:29:43.482Z,86.00
2019-05-02T04:32:14.394Z,85.30
2019-05-02T04:34:49.020Z,83.60
2019-05-02T04:37:15.449Z,82.20
2019-05-02T04:39:44.812Z,80.90
2019-05-02T04:42:19.486Z,80.90
2019-05-02T04:45:09.457Z,79.70
2019-05-02T04:47:21.486Z,77.20
2019-05-02T04:49:49.114Z,77.30
2019-05-02T04:52:21.065Z,75.50
2019-05-02T04:54:50.763Z,74.20
2019-05-02T04:57:20.160Z,74.10
2019-05-02T04:59:50.441Z,74.50
2019-05-02T05:02:29.302Z,72.60
2019-05-02T05:04:51.178Z,70.30
2019-05-02T05:07:20.606Z,68.00
2019-05-02T05:09:57.176Z,66.60
2019-05-02T05:12:21.031Z,66.10
2019-05-02T05:14:50.410Z,66.10
2019-05-02T05:17:20.130Z,65.80
2019-05-02T05:19:49.525Z,66.10
2019-05-02T05:22:18.936Z,66.70
2019-05-02T05:24:58.218Z,68.70
2019-05-02T05:27:28.316Z,70.00
2019-05-02T05:29:59.479Z,70.00
2019-05-02T05:32:29.078Z,70.80
2019-05-02T05:35:03.467Z,68.70
2019-05-02T05:37:29.622Z,67.60
2019-05-02T05:39:58.982Z,67.50
2019-05-02T05:42:30.244Z,67.60
2019-05-02T05:45:03.746Z,66.40
2019-05-02T05:47:30.444Z,66.50
2019-05-02T05:50:01.161Z,67.70
2019-05-02T05:52:33.082Z,67.00
2019-05-02T05:55:04.786Z,67.20
2019-05-02T05:57:33.636Z,65.90
2019-05-02T06:00:11.912Z,65.20
2019-05-02T06:02:50.926Z,64.50
2019-05-02T06:05:07.954Z,62.50
2019-05-02T06:07:41.765Z,60.60
2019-05-02T06:10:09.922Z,60.00
2019-05-02T06:12:39.706Z,58.90
2019-05-02T06:15:09.121Z,57.10
2019-05-02T06:17:38.843Z,57.90
2019-05-02T06:20:08.528Z,58.40
2019-05-02T06:22:37.967Z,57.30
2019-05-02T06:25:09.820Z,58.00
2019-05-02T06:27:39.581Z,57.80
2019-05-02T06:30:09.648Z,58.70
2019-05-02T06:32:39.137Z,57.30
2019-05-02T06:35:08.557Z,57.90
2019-05-02T06:37:40.443Z,57.70
2019-05-02T06:40:09.551Z,57.70
2019-05-02T06:42:39.562Z,58.10
2019-05-02T06:45:09.611Z,58.20
2019-05-02T06:47:41.823Z,57.80
2019-05-02T06:50:10.533Z,58.30
2019-05-02T06:52:39.944Z,58.60
2019-05-02T06:55:10.137Z,58.70
2019-05-02T06:57:39.857Z,59.10
2019-05-02T07:00:09.756Z,59.70
2019-05-02T07:02:39.143Z,59.60
2019-05-02T07:05:08.865Z,59.40
2019-05-02T07:07:38.467Z,59.10
2019-05-02T07:10:09.232Z,57.90
2019-05-02T07:12:39.198Z,57.80
2019-05-02T07:15:16.076Z,57.80
2019-05-02T07:17:46.409Z,57.80
2019-05-02T07:20:16.181Z,57.20
2019-05-02T07:22:45.833Z,57.20
2019-05-02T07:25:16.904Z,56.00
2019-05-02T07:27:46.280Z,55.60
2019-05-02T07:30:16.104Z,54.40
2019-05-02T07:32:45.515Z,54.60
2019-05-02T07:35:19.131Z,55.40
2019-05-02T07:37:48.836Z,54.50
2019-05-02T07:40:18.831Z,54.60
2019-05-02T07:42:48.313Z,54.90
2019-05-02T07:45:18.073Z,56.40
2019-05-02T07:47:47.869Z,56.30
2019-05-02T07:50:17.370Z,56.00
2019-05-02T07:52:46.756Z,55.40
2019-05-02T07:55:16.131Z,56.00
2019-05-02T07:57:45.798Z,55.50
2019-05-02T08:00:16.199Z,54.70
2019-05-02T08:02:45.559Z,54.70
2019-05-02T08:05:20.999Z,54.50
2019-05-02T08:07:46.364Z,55.00
2019-05-02T08:10:22.084Z,55.00
2019-05-02T08:12:48.739Z,54.70
2019-05-02T08:15:18.278Z,54.80
2019-05-02T08:17:53.378Z,54.90
2019-05-02T08:20:19.843Z,54.90
2019-05-02T08:22:50.570Z,55.80
2019-05-02T08:25:19.985Z,54.90
2019-05-02T08:27:57.729Z,54.90
2019-05-02T08:30:30.387Z,55.40
2019-05-02T08:32:59.840Z,55.20
2019-05-02T08:35:29.514Z,55.40
2019-05-02T08:37:58.944Z,55.70
2019-05-02T08:40:28.369Z,56.20
2019-05-02T08:42:58.098Z,55.10
2019-05-02T08:45:27.494Z,55.60
2019-05-02T08:48:00.253Z,55.00
2019-05-02T08:50:31.844Z,54.80
2019-05-02T08:52:58.919Z,54.60
2019-05-02T08:55:29.974Z,55.20
2019-05-02T08:57:59.739Z,55.10
2019-05-02T09:00:32.103Z,55.20
2019-05-02T09:03:02.707Z,54.60
2019-05-02T09:05:36.314Z,53.50
2019-05-02T09:08:02.830Z,53.80
2019-05-02T09:10:32.217Z,53.90
2019-05-02T09:13:02.655Z,52.80
2019-05-02T09:15:35.141Z,51.70
2019-05-02T09:18:03.473Z,51.40
2019-05-02T09:20:33.003Z,51.50
2019-05-02T09:23:02.386Z,52.10
2019-05-02T09:25:32.371Z,52.00
2019-05-02T09:28:02.154Z,52.90
2019-05-02T09:30:32.717Z,52.60
2019-05-02T09:33:06.541Z,52.00
2019-05-02T09:35:34.390Z,50.20
2019-05-02T09:38:03.799Z,50.30
2019-05-02T09:40:33.222Z,49.40
2019-05-02T09:43:04.686Z,50.20
2019-05-02T09:45:37.351Z,49.40
2019-05-02T09:48:08.089Z,48.50
2019-05-02T09:50:38.473Z,49.30
2019-05-02T09:53:13.045Z,48.60
2019-05-02T09:55:42.399Z,48.60
2019-05-02T09:58:19.064Z,48.80
2019-05-02T10:01:07.091Z,48.70
2019-05-02T10:03:37.132Z,48.60
2019-05-02T10:06:08.343Z,48.60
2019-05-02T10:08:42.355Z,47.70
2019-05-02T10:11:11.754Z,46.80
2019-05-02T10:13:42.465Z,48.50
2019-05-02T10:16:12.322Z,48.50
2019-05-02T10:18:43.118Z,48.60
2019-05-02T10:21:17.033Z,48.80
2019-05-02T10:23:44.209Z,47.90
2019-05-02T10:26:19.901Z,46.20
2019-05-02T10:28:49.335Z,47.40
2019-05-02T10:31:16.829Z,45.30
2019-05-02T10:33:46.494Z,45.80
2019-05-02T10:36:19.707Z,45.20
2019-05-02T10:38:49.063Z,44.00
2019-05-02T10:41:18.026Z,43.30
2019-05-02T10:43:51.944Z,45.00
2019-05-02T10:46:33.491Z,43.40
2019-05-02T10:49:09.435Z,42.10
2019-05-02T10:51:46.541Z,41.30
2019-05-02T10:54:11.989Z,41.70
2019-05-02T10:56:42.362Z,42.60
2019-05-02T10:59:11.904Z,41.90
2019-05-02T11:02:18.225Z,42.10
2019-05-02T11:04:52.430Z,41.50
2019-05-02T11:07:26.205Z,40.80
2019-05-02T11:09:57.339Z,40.80
2019-05-02T11:12:43.406Z,40.80
2019-05-02T11:15:32.514Z,40.90
2019-05-02T11:18:02.380Z,40.80
2019-05-02T11:20:31.929Z,40.80
2019-05-02T11:23:02.216Z,40.70
2019-05-02T11:25:32.018Z,41.40
2019-05-02T11:28:02.928Z,39.60
2019-05-02T11:30:32.443Z,41.10
2019-05-02T11:33:03.072Z,40.80
2019-05-02T11:35:32.612Z,39.30
2019-05-02T11:38:02.601Z,39.30
2019-05-02T11:40:32.230Z,39.60
2019-05-02T11:43:06.666Z,40.20
2019-05-02T11:45:32.998Z,40.80
2019-05-02T11:48:09.206Z,40.10
2019-05-02T11:50:35.453Z,41.20
2019-05-02T11:53:09.280Z,40.80
2019-05-02T11:55:35.751Z,40.00
2019-05-02T11:58:08.266Z,39.40
2019-05-02T12:00:39.610Z,40.00
2019-05-02T12:03:21.979Z,38.90
2019-05-02T12:05:52.392Z,39.00
2019-05-02T12:08:22.600Z,38.00
2019-05-02T12:10:52.094Z,38.30
2019-05-02T12:13:22.692Z,38.20
2019-05-02T12:15:52.153Z,38.10
2019-05-02T12:18:23.328Z,38.60
2019-05-02T12:20:52.924Z,37.50
2019-05-02T12:23:22.736Z,38.30
2019-05-02T12:25:52.610Z,36.20
2019-05-02T12:28:22.894Z,35.90
2019-05-02T12:30:52.586Z,36.00
2019-05-02T12:33:24.141Z,36.20
2019-05-02T12:35:53.527Z,36.90
2019-05-02T12:38:23.300Z,36.50
2019-05-02T12:40:52.933Z,36.50
2019-05-02T12:43:22.977Z,37.00
2019-05-02T12:45:52.955Z,37.60
2019-05-02T12:48:22.806Z,37.20
2019-05-02T12:50:52.754Z,37.60
2019-05-02T12:53:22.288Z,37.10
2019-05-02T12:55:52.717Z,36.80
2019-05-02T12:58:22.221Z,36.40
2019-05-02T13:00:53.109Z,35.60
2019-05-02T13:03:40.310Z,35.30
2019-05-02T13:06:09.673Z,35.90
2019-05-02T13:08:52.589Z,35.50
2019-05-02T13:11:47.936Z,35.20
2019-05-02T13:14:19.960Z,36.10
2019-05-02T13:16:58.247Z,36.10
2019-05-02T13:19:23.690Z,35.90
2019-05-02T13:22:02.295Z,35.00
2019-05-02T13:24:34.897Z,34.90
2019-05-02T13:27:05.319Z,34.10
2019-05-02T13:29:34.738Z,35.00
2019-05-02T13:32:23.229Z,35.00
2019-05-02T13:35:07.026Z,33.40
2019-05-02T13:37:36.442Z,34.10
2019-05-02T13:40:16.866Z,31.20
2019-05-02T13:42:44.925Z,29.50
2019-05-02T13:45:32.436Z,29.50
2019-05-02T13:48:02.740Z,29.50
2019-05-02T13:50:32.648Z,30.20
2019-05-02T13:53:02.682Z,31.10
2019-05-02T13:55:36.983Z,31.00
2019-05-02T13:58:06.359Z,31.80
2019-05-02T14:00:42.514Z,32.50
2019-05-02T14:03:12.055Z,30.60
2019-05-02T14:05:49.186Z,30.90
2019-05-02T14:08:27.422Z,30.80
2019-05-02T14:11:01.798Z,31.00
2019-05-02T14:13:31.619Z,31.20
2019-05-02T14:16:02.299Z,33.00
2019-05-02T14:18:33.640Z,32.20
2019-05-02T14:21:03.140Z,32.70
2019-05-02T14:23:32.571Z,33.30
2019-05-02T14:26:02.133Z,33.60
2019-05-02T14:28:36.119Z,33.80
2019-05-02T14:31:02.716Z,33.30
2019-05-02T14:33:33.699Z,34.30
2019-05-02T14:36:03.114Z,34.90
2019-05-02T14:38:32.555Z,34.90
2019-05-02T14:41:09.325Z,34.80
2019-05-02T14:43:53.226Z,35.40
2019-05-02T14:46:28.704Z,35.90
2019-05-02T14:48:56.575Z,36.20
2019-05-02T14:51:27.887Z,36.20
2019-05-02T14:54:01.909Z,37.10
2019-05-02T14:56:45.928Z,38.10
2019-05-02T14:59:15.179Z,38.50
2019-05-02T15:01:46.965Z,36.80
2019-05-02T15:04:16.839Z,35.70
2019-05-02T15:06:47.566Z,35.20
2019-05-02T15:09:22.614Z,35.30
2019-05-02T15:12:02.905Z,36.30
2019-05-02T15:14:33.248Z,36.90
2019-05-02T15:17:02.949Z,37.10
2019-05-02T15:19:33.145Z,37.20
2019-05-02T15:22:02.812Z,36.10
2019-05-02T15:24:36.175Z,35.20
2019-05-02T15:27:11.450Z,34.50
2019-05-02T15:29:34.309Z,34.50
2019-05-02T15:32:25.350Z,33.30
2019-05-02T15:35:12.829Z,35.40
2019-05-02T15:37:42.059Z,36.80
2019-05-02T15:40:43.548Z,38.60
2019-05-02T15:42:52.167Z,39.50
2019-05-02T15:45:23.753Z,40.60
2019-05-02T15:47:53.038Z,40.50
2019-05-02T15:50:25.555Z,42.60
2019-05-02T15:53:03.010Z,49.50
2019-05-02T15:55:39.239Z,52.40
2019-05-02T15:58:03.330Z,53.70
2019-05-02T16:00:36.609Z,54.30
2019-05-02T16:03:06.288Z,57.10
2019-05-02T16:05:36.652Z,58.20
2019-05-02T16:08:08.798Z,59.60
2019-05-02T16:10:38.942Z,61.80
2019-05-02T16:13:15.727Z,63.10
2019-05-02T16:15:42.681Z,65.20
2019-05-02T16:18:12.768Z,69.50
2019-05-02T16:21:04.147Z,73.60
2019-05-02T16:23:29.882Z,76.80
2019-05-02T16:25:56.870Z,80.20
2019-05-02T16:28:24.752Z,81.60
2019-05-02T16:30:56.458Z,83.70
2019-05-02T16:33:25.876Z,83.40
2019-05-02T16:35:55.567Z,83.10
2019-05-02T16:38:26.795Z,83.70
2019-05-02T16:40:56.603Z,85.90
2019-05-02T16:43:27.702Z,83.40
2019-05-02T16:45:57.711Z,87.30
2019-05-02T16:48:30.598Z,85.60
2019-05-02T16:50:58.404Z,90.10
2019-05-02T16:53:27.819Z,88.80
2019-05-02T16:55:58.351Z,87.50
2019-05-02T16:58:28.251Z,91.10
2019-05-02T17:00:57.689Z,80.10
2019-05-02T17:03:27.065Z,80.40
2019-05-02T17:05:56.768Z,80.60
2019-05-02T17:08:49.436Z,82.80
2019-05-02T17:11:22.776Z,82.80
2019-05-02T17:13:52.769Z,84.10
2019-05-02T17:16:22.175Z,84.80
2019-05-02T17:18:52.962Z,84.80
2019-05-02T17:21:26.886Z,81.00
2019-05-02T17:23:53.946Z,83.50
2019-05-02T17:26:23.408Z,84.70
2019-05-02T17:28:53.125Z,84.60
2019-05-02T17:31:23.024Z,85.60
2019-05-02T17:33:54.505Z,86.60
2019-05-02T17:36:28.702Z,87.60
2019-05-02T17:38:59.337Z,89.30
2019-05-02T17:41:26.904Z,87.20
2019-05-02T17:43:59.016Z,87.10
2019-05-02T17:46:28.010Z,88.50
2019-05-02T17:48:57.424Z,88.90
2019-05-02T17:51:33.897Z,89.80
2019-05-02T17:54:03.474Z,88.90
2019-05-02T17:56:32.890Z,90.30
2019-05-02T17:59:02.275Z,90.70
2019-05-02T18:01:35.598Z,90.80
2019-05-02T18:04:07.015Z,90.80
2019-05-02T18:06:36.344Z,91.30
2019-05-02T18:09:07.982Z,91.50
2019-05-02T18:11:37.893Z,91.70
2019-05-02T18:14:17.724Z,92.00
2019-05-02T18:16:39.321Z,92.30
2019-05-02T18:19:09.163Z,92.80
2019-05-02T18:21:38.554Z,92.50
2019-05-02T18:24:07.948Z,91.60
2019-05-02T18:26:37.669Z,91.70
2019-05-02T18:29:07.149Z,92.20
2019-05-02T18:31:39.633Z,92.50
2019-05-02T18:34:14.379Z,91.70
2019-05-02T18:36:39.245Z,91.20
2019-05-02T18:39:09.137Z,92.00
2019-05-02T18:41:44.758Z,92.10
2019-05-02T18:44:11.684Z,90.80
2019-05-02T18:46:41.439Z,90.80
2019-05-02T18:49:12.382Z,91.00
2019-05-02T18:51:43.456Z,92.40
2019-05-02T18:54:13.127Z,92.30
2019-05-02T18:56:49.062Z,92.30
2019-05-02T18:59:19.625Z,92.10
2019-05-02T19:01:47.419Z,92.40
2019-05-02T19:04:16.666Z,92.60
2019-05-02T19:06:46.185Z,92.40
2019-05-02T19:09:17.549Z,92.70
2019-05-02T19:11:46.751Z,91.90
2019-05-02T19:14:21.205Z,91.90
2019-05-02T19:16:47.883Z,92.20
2019-05-02T19:19:17.900Z,92.50
2019-05-02T19:21:47.333Z,92.60
2019-05-02T19:24:17.005Z,92.40
2019-05-02T19:26:49.164Z,91.80
2019-05-02T19:29:24.027Z,91.80
2019-05-02T19:31:54.352Z,91.80
2019-05-02T19:34:26.815Z,92.10
2019-05-02T19:36:58.135Z,92.00
2019-05-02T19:39:29.411Z,91.80
2019-05-02T19:41:58.861Z,92.20
2019-05-02T19:44:29.594Z,92.10
2019-05-02T19:46:59.432Z,92.50
2019-05-02T19:49:28.907Z,93.00
2019-05-02T19:51:58.406Z,93.80
2019-05-02T19:54:33.572Z,94.70
2019-05-02T19:57:00.585Z,95.10
2019-05-02T19:59:32.016Z,95.00
2019-05-02T20:02:05.928Z,94.90
2019-05-02T20:04:32.922Z,95.20
2019-05-02T20:07:02.753Z,95.50
2019-05-02T20:09:32.436Z,95.00
2019-05-02T20:12:06.227Z,95.30
2019-05-02T20:14:33.071Z,96.20
2019-05-02T20:17:02.784Z,96.40
2019-05-02T20:19:34.857Z,96.80
2019-05-02T20:22:11.841Z,97.00
2019-05-02T20:24:55.268Z,98.00
2019-05-02T20:27:22.479Z,98.30
2019-05-02T20:29:52.232Z,98.30
2019-05-02T20:32:22.139Z,98.20
2019-05-02T20:34:51.706Z,97.90
2019-05-02T20:37:22.082Z,98.60
2019-05-02T20:39:51.902Z,97.90
2019-05-02T20:42:21.594Z,98.50
2019-05-02T20:44:52.687Z,98.60
2019-05-02T20:47:25.151Z,98.60
2019-05-02T20:49:54.575Z,99.40
2019-05-02T20:52:24.068Z,98.70
2019-05-02T20:54:53.546Z,99.00
2019-05-02T20:57:23.228Z,98.70
2019-05-02T20:59:52.786Z,99.40
2019-05-02T21:02:22.360Z,98.50
2019-05-02T21:04:52.391Z,99.10
2019-05-02T21:07:52.626Z,99.60
2019-05-02T21:10:26.409Z,99.90
2019-05-02T21:12:55.872Z,99.90
2019-05-02T21:15:25.238Z,99.90
2019-05-02T21:17:54.780Z,99.90
2019-05-02T21:20:24.158Z,99.90
2019-05-02T21:22:53.544Z,99.90
2019-05-02T21:25:23.306Z,99.90
2019-05-02T21:27:53.127Z,99.90
2019-05-02T21:30:26.239Z,99.90
2019-05-02T21:32:55.637Z,99.90
2019-05-02T21:35:25.308Z,99.90
2019-05-02T21:37:54.859Z,99.90
2019-05-02T21:40:25.767Z,99.90
2019-05-02T21:42:55.362Z,99.90
2019-05-02T21:45:25.078Z,99.90
2019-05-02T21:47:54.469Z,99.90
2019-05-02T21:50:44.596Z,99.90
2019-05-02T21:53:32.949Z,99.90
2019-05-02T21:56:25.552Z,99.90
2019-05-02T21:59:12.239Z,99.90
2019-05-02T22:01:51.731Z,99.90
2019-05-02T22:04:22.448Z,99.90
2019-05-02T22:06:52.327Z,99.90
2019-05-02T22:09:23.141Z,99.90
2019-05-02T22:11:52.756Z,99.90
2019-05-02T22:14:22.531Z,99.90
2019-05-02T22:16:53.047Z,99.90
2019-05-02T22:19:22.617Z,99.90
2019-05-02T22:21:52.620Z,99.90
2019-05-02T22:24:22.304Z,99.90
2019-05-02T22:26:52.584Z,99.90
2019-05-02T22:29:22.144Z,99.90
2019-05-02T22:31:52.165Z,99.90
2019-05-02T22:34:22.784Z,99.90
2019-05-02T22:36:54.364Z,99.90
2019-05-02T22:39:57.978Z,99.90
2019-05-02T22:42:27.642Z,99.90
2019-05-02T22:44:57.055Z,99.90
2019-05-02T22:47:26.434Z,99.90
2019-05-02T22:49:55.830Z,99.90
2019-05-02T22:52:25.203Z,99.90
2019-05-02T22:54:54.954Z,99.90
2019-05-02T22:57:24.324Z,99.90
2019-05-02T22:59:53.742Z,99.90
2019-05-02T23:02:23.583Z,99.90
2019-05-02T23:04:52.991Z,99.90
2019-05-02T23:07:25.719Z,99.90
2019-05-02T23:09:55.230Z,99.90
2019-05-02T23:12:25.133Z,99.90
2019-05-02T23:14:55.769Z,99.90
2019-05-02T23:17:25.458Z,99.90
2019-05-02T23:19:54.913Z,99.90
2019-05-02T23:22:24.762Z,99.90
2019-05-02T23:25:16.833Z,99.90
2019-05-02T23:27:51.784Z,99.90
2019-05-02T23:30:22.913Z,99.90
2019-05-02T23:32:52.835Z,99.90
2019-05-02T23:35:22.555Z,99.90
2019-05-02T23:37:52.979Z,99.90
2019-05-02T23:40:22.679Z,99.90
2019-05-02T23:42:52.440Z,99.90
2019-05-02T23:45:22.589Z,99.90
2019-05-02T23:47:52.758Z,99.90
2019-05-02T23:50:22.933Z,99.90
2019-05-02T23:52:52.461Z,99.90
2019-05-02T23:55:22.874Z,99.90
2019-05-02T23:57:52.440Z,99.90
